createdAt,value
2022-07-29T00:01:44.069Z,6.10
2022-07-29T00:04:13.014Z,5.80
2022-07-29T00:06:42.419Z,6.30
2022-07-29T00:09:10.643Z,6.20
2022-07-29T00:11:38.776Z,6.10
2022-07-29T00:14:06.854Z,5.80
2022-07-29T00:16:35.465Z,6.30
2022-07-29T00:19:04.515Z,5.80
2022-07-29T00:21:32.699Z,6.10
2022-07-29T00:24:00.794Z,6.40
2022-07-29T00:26:32.881Z,6.60
2022-07-29T00:29:32.642Z,5.60
2022-07-29T00:31:50.701Z,5.80
2022-07-29T00:34:37.585Z,5.90
2022-07-29T00:37:05.720Z,5.80
2022-07-29T00:39:36.311Z,5.20
2022-07-29T00:42:05.959Z,6.10
2022-07-29T00:44:38.887Z,5.50
2022-07-29T00:47:08.212Z,5.10
2022-07-29T00:49:36.772Z,5.10
2022-07-29T00:52:06.276Z,4.90
2022-07-29T00:54:35.393Z,5.00
2022-07-29T00:57:09.125Z,5.40
2022-07-29T00:59:37.312Z,5.30
2022-07-29T01:02:05.688Z,5.50
2022-07-29T01:04:34.313Z,4.90
2022-07-29T01:07:03.787Z,4.80
2022-07-29T01:09:45.745Z,5.40
2022-07-29T01:12:19.820Z,5.50
2022-07-29T01:14:49.966Z,6.10
2022-07-29T01:17:38.002Z,5.80
2022-07-29T01:20:14.894Z,5.70
2022-07-29T01:23:03.178Z,6.10
2022-07-29T01:25:53.190Z,6.30
2022-07-29T01:28:36.595Z,5.60
2022-07-29T01:31:07.477Z,5.80
2022-07-29T01:33:50.585Z,5.70
2022-07-29T01:36:31.041Z,5.50
2022-07-29T01:39:36.263Z,6.10
2022-07-29T01:42:13.989Z,5.60
2022-07-29T01:45:07.437Z,5.30
2022-07-29T01:47:57.817Z,4.60
2022-07-29T01:50:45.606Z,5.20
2022-07-29T01:53:22.661Z,5.40
2022-07-29T01:55:52.084Z,5.80
2022-07-29T01:58:21.812Z,4.90
2022-07-29T02:00:51.598Z,4.80
2022-07-29T02:03:20.110Z,5.40
2022-07-29T02:05:51.410Z,4.90
2022-07-29T02:08:20.838Z,5.10
2022-07-29T02:10:49.950Z,4.60
2022-07-29T02:15:47.907Z,4.70
2022-07-29T02:18:18.933Z,5.30
2022-07-29T02:20:49.685Z,4.80
2022-07-29T02:23:21.746Z,5.00
2022-07-29T02:25:52.867Z,4.80
2022-07-29T02:28:23.907Z,4.70
2022-07-29T02:30:53.757Z,4.70
2022-07-29T02:33:25.124Z,4.80
2022-07-29T02:35:54.617Z,4.70
2022-07-29T02:38:43.498Z,5.00
2022-07-29T02:41:16.733Z,4.80
2022-07-29T02:43:48.009Z,5.30
2022-07-29T02:46:28.966Z,4.40
2022-07-29T02:49:05.377Z,4.90
2022-07-29T02:51:45.177Z,5.20
2022-07-29T02:54:30.750Z,4.70
2022-07-29T02:57:05.088Z,4.60
2022-07-29T02:59:37.855Z,4.90
2022-07-29T03:02:07.124Z,4.30
2022-07-29T03:04:36.522Z,4.50
2022-07-29T03:07:06.295Z,4.90
2022-07-29T03:09:35.160Z,4.70
2022-07-29T03:12:05.073Z,4.70
2022-07-29T03:14:34.533Z,5.20
2022-07-29T03:19:32.380Z,4.40
2022-07-29T03:22:00.942Z,5.80
2022-07-29T03:24:35.262Z,5.10
2022-07-29T03:27:04.825Z,5.50
2022-07-29T03:29:34.565Z,5.00
2022-07-29T03:32:08.043Z,5.70
2022-07-29T03:34:38.584Z,5.40
2022-07-29T03:37:07.810Z,6.00
2022-07-29T03:42:09.995Z,5.10
2022-07-29T03:44:40.124Z,5.20
2022-07-29T03:47:10.745Z,5.90
2022-07-29T03:49:41.381Z,6.00
2022-07-29T03:52:10.073Z,5.40
2022-07-29T03:54:38.369Z,6.10
2022-07-29T03:57:08.425Z,5.80
2022-07-29T03:59:38.981Z,5.60
2022-07-29T04:02:12.057Z,6.10
2022-07-29T04:04:40.691Z,5.70
2022-07-29T04:07:13.243Z,6.20
2022-07-29T04:09:41.632Z,6.50
2022-07-29T04:12:10.316Z,6.50
2022-07-29T04:14:38.432Z,5.60
2022-07-29T04:17:06.789Z,5.60
2022-07-29T04:19:35.094Z,5.70
2022-07-29T04:22:04.133Z,6.30
2022-07-29T04:27:00.084Z,5.70
2022-07-29T04:29:28.194Z,5.80
2022-07-29T04:31:56.250Z,6.00
2022-07-29T04:34:28.295Z,5.70
2022-07-29T04:36:57.001Z,5.60
2022-07-29T04:39:25.766Z,6.10
2022-07-29T04:41:57.806Z,6.00
2022-07-29T04:44:28.903Z,5.80
2022-07-29T04:46:58.414Z,5.90
2022-07-29T04:49:27.133Z,6.10
2022-07-29T04:51:55.407Z,5.40
2022-07-29T04:54:23.714Z,4.90
2022-07-29T04:56:52.865Z,5.50
2022-07-29T04:59:20.955Z,5.60
2022-07-29T05:01:49.016Z,6.30
2022-07-29T05:04:17.672Z,6.70
2022-07-29T05:09:14.091Z,6.30
2022-07-29T05:11:42.095Z,5.70
2022-07-29T05:14:10.150Z,5.80
2022-07-29T05:16:38.120Z,6.40
2022-07-29T05:19:09.730Z,6.30
2022-07-29T05:21:41.979Z,5.90
2022-07-29T05:24:10.042Z,6.00
2022-07-29T05:26:38.114Z,6.50
2022-07-29T05:29:06.446Z,6.50
2022-07-29T05:31:34.748Z,6.00
2022-07-29T05:34:02.857Z,5.60
2022-07-29T05:36:30.979Z,5.80
2022-07-29T05:38:59.121Z,5.70
2022-07-29T05:41:27.366Z,5.70
2022-07-29T05:43:55.602Z,5.70
2022-07-29T05:46:23.744Z,5.50
2022-07-29T05:48:52.134Z,6.80
2022-07-29T05:51:20.172Z,6.30
2022-07-29T05:53:48.295Z,6.10
2022-07-29T05:56:16.981Z,6.10
2022-07-29T05:58:45.009Z,6.00
2022-07-29T06:01:13.305Z,6.10
2022-07-29T06:03:42.564Z,5.50
2022-07-29T06:06:11.162Z,5.50
2022-07-29T06:08:39.827Z,5.80
2022-07-29T06:13:37.997Z,5.50
2022-07-29T06:16:06.234Z,5.70
2022-07-29T06:18:34.615Z,6.60
2022-07-29T06:21:02.825Z,6.00
2022-07-29T06:23:30.777Z,6.20
2022-07-29T06:25:59.595Z,6.00
2022-07-29T06:28:28.358Z,6.10
2022-07-29T06:30:56.648Z,5.90
2022-07-29T06:33:24.931Z,6.40
2022-07-29T06:35:53.579Z,7.10
2022-07-29T06:38:31.107Z,6.10
2022-07-29T06:41:03.803Z,6.50
2022-07-29T06:43:52.477Z,6.70
2022-07-29T06:46:24.121Z,6.00
2022-07-29T06:48:53.570Z,5.80
2022-07-29T06:51:23.840Z,6.20
2022-07-29T06:54:00.607Z,5.80
2022-07-29T06:56:43.004Z,5.80
2022-07-29T06:59:12.643Z,5.90
2022-07-29T07:01:44.443Z,5.70
2022-07-29T07:04:13.461Z,7.10
2022-07-29T07:06:41.891Z,8.30
2022-07-29T07:09:10.026Z,6.70
2022-07-29T07:11:38.254Z,6.40
2022-07-29T07:14:06.350Z,6.30
2022-07-29T07:16:34.508Z,7.30
2022-07-29T07:19:02.721Z,7.80
2022-07-29T07:21:31.438Z,6.90
2022-07-29T07:24:00.499Z,6.30
2022-07-29T07:26:29.634Z,6.40
2022-07-29T07:28:58.281Z,6.50
2022-07-29T07:33:54.724Z,7.00
2022-07-29T07:38:51.461Z,6.40
2022-07-29T07:41:19.521Z,6.50
2022-07-29T07:43:48.251Z,6.40
2022-07-29T07:46:16.661Z,5.60
2022-07-29T07:48:45.599Z,6.00
2022-07-29T07:51:14.030Z,5.80
2022-07-29T07:53:42.435Z,6.30
2022-07-29T07:56:12.867Z,6.00
2022-07-29T07:58:41.782Z,6.10
2022-07-29T08:01:10.269Z,6.00
2022-07-29T08:03:39.075Z,6.10
2022-07-29T08:06:07.659Z,5.70
2022-07-29T08:08:36.449Z,5.80
2022-07-29T08:11:09.198Z,5.50
2022-07-29T08:13:39.392Z,5.90
2022-07-29T08:16:13.245Z,5.50
2022-07-29T08:18:42.865Z,5.70
2022-07-29T08:21:11.111Z,5.70
2022-07-29T08:23:59.699Z,5.60
2022-07-29T08:26:30.030Z,5.60
2022-07-29T08:28:58.032Z,5.90
2022-07-29T08:31:26.155Z,5.10
2022-07-29T08:36:22.333Z,5.40
2022-07-29T08:41:22.827Z,5.70
2022-07-29T08:43:53.031Z,4.90
2022-07-29T08:46:22.098Z,6.60
2022-07-29T08:48:50.653Z,5.70
2022-07-29T08:51:20.944Z,4.70
2022-07-29T08:53:50.773Z,5.20
2022-07-29T08:56:20.544Z,5.30
2022-07-29T08:58:51.965Z,5.30
2022-07-29T09:01:35.533Z,5.30
2022-07-29T09:04:07.150Z,5.30
2022-07-29T09:06:40.481Z,5.20
2022-07-29T09:09:10.140Z,5.50
2022-07-29T09:11:38.378Z,5.50
2022-07-29T09:14:06.914Z,5.10
2022-07-29T09:16:53.563Z,5.40
2022-07-29T09:19:23.700Z,5.40
2022-07-29T09:22:03.103Z,5.50
2022-07-29T09:24:42.516Z,5.20
2022-07-29T09:27:24.314Z,5.40
2022-07-29T09:30:01.496Z,5.10
2022-07-29T09:32:30.703Z,5.70
2022-07-29T09:35:19.449Z,5.40
2022-07-29T09:37:48.706Z,5.70
2022-07-29T09:40:24.205Z,5.00
2022-07-29T09:42:54.266Z,5.30
2022-07-29T09:45:34.782Z,5.50
2022-07-29T09:48:18.365Z,5.30
2022-07-29T09:50:49.501Z,5.60
2022-07-29T09:53:38.503Z,5.20
2022-07-29T09:56:07.310Z,5.30
2022-07-29T09:58:35.900Z,5.30
2022-07-29T10:01:05.070Z,5.70
2022-07-29T10:03:33.488Z,5.00
2022-07-29T10:06:05.866Z,5.30
2022-07-29T10:08:34.020Z,5.10
2022-07-29T10:13:45.333Z,5.30
2022-07-29T10:16:15.011Z,4.90
2022-07-29T10:18:44.834Z,5.30
2022-07-29T10:21:22.560Z,5.20
2022-07-29T10:24:02.478Z,4.90
2022-07-29T10:28:59.805Z,5.00
2022-07-29T10:31:36.489Z,4.70
2022-07-29T10:34:57.488Z,5.30
2022-07-29T10:37:45.960Z,4.90
2022-07-29T10:40:57.290Z,4.80
2022-07-29T10:43:29.943Z,4.80
2022-07-29T10:46:01.660Z,5.10
2022-07-29T10:48:30.349Z,5.30
2022-07-29T10:51:04.620Z,5.50
2022-07-29T10:53:54.209Z,5.70
2022-07-29T10:56:35.913Z,5.40
2022-07-29T10:59:22.755Z,5.50
2022-07-29T11:01:54.275Z,5.10
2022-07-29T11:04:45.408Z,5.70
2022-07-29T11:07:17.497Z,5.20
2022-07-29T11:10:15.138Z,4.90
2022-07-29T11:12:44.506Z,5.40
2022-07-29T11:15:18.438Z,5.70
2022-07-29T11:17:55.244Z,5.40
2022-07-29T11:20:34.749Z,5.20
2022-07-29T11:26:18.977Z,5.70
2022-07-29T11:28:55.659Z,5.30
2022-07-29T11:31:42.458Z,5.80
2022-07-29T11:34:28.006Z,5.70
2022-07-29T11:40:08.183Z,5.80
2022-07-29T11:42:36.857Z,5.40
2022-07-29T11:45:44.412Z,5.40
2022-07-29T11:48:27.911Z,5.50
2022-07-29T11:50:55.101Z,5.80
2022-07-29T11:53:24.196Z,5.60
2022-07-29T11:55:58.248Z,6.10
2022-07-29T11:58:28.480Z,5.80
2022-07-29T12:00:57.845Z,5.50
2022-07-29T12:03:35.249Z,5.60
2022-07-29T12:06:15.134Z,5.60
2022-07-29T12:07:01.663Z,5.50
2022-07-29T12:08:44.888Z,6.00
2022-07-29T12:11:20.388Z,5.90
2022-07-29T12:13:50.434Z,5.30
2022-07-29T12:16:29.209Z,5.60
2022-07-29T12:19:02.893Z,5.80
2022-07-29T12:21:53.959Z,5.30
2022-07-29T12:24:26.843Z,6.10
2022-07-29T12:26:58.161Z,5.60
2022-07-29T12:29:33.933Z,6.00
2022-07-29T12:32:14.568Z,6.40
2022-07-29T12:34:48.260Z,5.80
2022-07-29T12:37:16.705Z,6.40
2022-07-29T12:39:45.065Z,6.70
2022-07-29T12:44:49.358Z,6.10
2022-07-29T12:47:19.334Z,6.10
2022-07-29T12:49:49.100Z,5.90
2022-07-29T12:52:32.860Z,6.60
2022-07-29T12:55:03.027Z,6.60
2022-07-29T12:57:33.071Z,6.70
2022-07-29T13:00:05.711Z,6.60
2022-07-29T13:02:34.129Z,5.90
2022-07-29T13:07:54.244Z,6.40
2022-07-29T13:10:24.135Z,6.90
2022-07-29T13:13:06.420Z,6.30
2022-07-29T13:15:35.190Z,6.40
2022-07-29T13:18:04.912Z,6.30
2022-07-29T13:20:33.534Z,5.80
2022-07-29T13:25:33.032Z,6.10
2022-07-29T13:28:01.650Z,5.80
2022-07-29T13:30:30.178Z,5.80
2022-07-29T13:32:58.350Z,6.20
2022-07-29T13:35:33.452Z,6.20
2022-07-29T13:38:08.425Z,6.20
2022-07-29T13:40:36.454Z,6.50
2022-07-29T13:43:04.462Z,6.60
2022-07-29T13:45:32.418Z,6.60
2022-07-29T13:48:00.430Z,6.50
2022-07-29T13:50:34.542Z,6.20
2022-07-29T13:53:02.640Z,6.10
2022-07-29T13:55:31.028Z,6.40
2022-07-29T13:57:59.091Z,6.80
2022-07-29T14:00:27.321Z,6.00
2022-07-29T14:02:55.514Z,6.30
2022-07-29T14:05:23.662Z,6.50
2022-07-29T14:07:51.925Z,6.00
2022-07-29T14:10:20.350Z,6.00
2022-07-29T14:12:48.466Z,6.10
2022-07-29T14:15:16.539Z,7.00
2022-07-29T14:17:44.617Z,6.50
2022-07-29T14:20:12.775Z,6.70
2022-07-29T14:22:42.698Z,5.70
2022-07-29T14:25:15.147Z,6.00
2022-07-29T14:27:44.837Z,6.10
2022-07-29T14:30:13.416Z,5.90
2022-07-29T14:35:09.933Z,6.40
2022-07-29T14:37:40.411Z,5.60
2022-07-29T14:40:10.818Z,5.50
2022-07-29T14:42:40.095Z,5.80
2022-07-29T14:45:10.321Z,5.60
2022-07-29T14:47:39.790Z,5.80
2022-07-29T14:50:08.994Z,5.90
2022-07-29T14:52:37.296Z,5.70
2022-07-29T14:55:06.125Z,5.70
2022-07-29T14:57:50.943Z,5.60
2022-07-29T15:00:19.402Z,5.50
2022-07-29T15:03:02.786Z,5.70
2022-07-29T15:05:32.356Z,6.50
2022-07-29T15:08:00.817Z,6.10
2022-07-29T15:12:58.445Z,5.80
2022-07-29T15:15:27.079Z,6.00
2022-07-29T15:17:55.188Z,6.60
2022-07-29T15:20:26.311Z,6.80
2022-07-29T15:22:56.571Z,6.50
2022-07-29T15:25:28.354Z,6.70
2022-07-29T15:28:01.253Z,7.10
2022-07-29T15:30:33.410Z,6.60
2022-07-29T15:33:04.208Z,7.00
2022-07-29T15:35:32.771Z,6.70
2022-07-29T15:38:01.065Z,6.10
2022-07-29T15:40:29.644Z,6.50
2022-07-29T15:42:58.609Z,6.10
2022-07-29T15:45:26.812Z,6.40
2022-07-29T15:48:00.673Z,6.60
2022-07-29T15:52:57.054Z,6.40
2022-07-29T15:55:25.518Z,6.40
2022-07-29T15:57:57.200Z,13.90
2022-07-29T16:00:28.558Z,9.60
2022-07-29T16:02:57.234Z,10.40
2022-07-29T16:05:25.592Z,9.50
2022-07-29T16:07:53.644Z,7.60
2022-07-29T16:10:21.649Z,7.10
2022-07-29T16:12:49.807Z,6.60
2022-07-29T16:15:17.881Z,6.60
2022-07-29T16:17:45.969Z,6.80
2022-07-29T16:20:14.152Z,7.40
2022-07-29T16:22:42.655Z,6.90
2022-07-29T16:25:10.698Z,6.40
2022-07-29T16:27:38.956Z,6.80
2022-07-29T16:30:09.782Z,6.90
2022-07-29T16:32:38.393Z,7.10
2022-07-29T16:35:07.877Z,6.80
2022-07-29T16:37:37.255Z,6.00
2022-07-29T16:40:07.244Z,6.60
2022-07-29T16:42:47.901Z,6.70
2022-07-29T16:45:17.986Z,6.90
2022-07-29T16:47:48.620Z,7.20
2022-07-29T16:50:18.129Z,7.40
2022-07-29T16:52:46.199Z,7.20
2022-07-29T16:55:14.374Z,6.60
2022-07-29T16:57:43.837Z,6.70
2022-07-29T17:00:13.612Z,6.60
2022-07-29T17:02:41.761Z,6.40
2022-07-29T17:05:10.880Z,6.60
2022-07-29T17:07:40.356Z,6.30
2022-07-29T17:10:10.023Z,6.00
2022-07-29T17:12:40.069Z,6.60
2022-07-29T17:15:10.820Z,6.50
2022-07-29T17:17:55.081Z,6.70
2022-07-29T17:20:27.047Z,6.30
2022-07-29T17:22:55.536Z,6.30
2022-07-29T17:25:24.421Z,6.60
2022-07-29T17:27:56.390Z,6.90
2022-07-29T17:30:27.561Z,6.70
2022-07-29T17:32:55.958Z,6.20
2022-07-29T17:35:56.136Z,6.60
2022-07-29T17:38:24.257Z,6.50
2022-07-29T17:40:52.430Z,6.70
2022-07-29T17:43:20.482Z,6.60
2022-07-29T17:45:48.857Z,6.70
2022-07-29T17:48:19.766Z,6.70
2022-07-29T17:50:48.825Z,6.30
2022-07-29T17:53:17.272Z,6.60
2022-07-29T17:55:46.576Z,6.50
2022-07-29T17:58:15.366Z,7.00
2022-07-29T18:00:43.991Z,6.50
2022-07-29T18:05:41.627Z,6.30
2022-07-29T18:08:09.981Z,7.50
2022-07-29T18:10:38.276Z,6.70
2022-07-29T18:13:06.352Z,6.80
2022-07-29T18:15:34.467Z,6.90
2022-07-29T18:18:02.442Z,7.50
2022-07-29T18:20:31.264Z,6.80
2022-07-29T18:22:59.536Z,7.00
2022-07-29T18:25:29.016Z,7.00
2022-07-29T18:28:00.479Z,6.70
2022-07-29T18:30:30.916Z,6.80
2022-07-29T18:33:20.146Z,7.20
2022-07-29T18:35:49.509Z,6.90
2022-07-29T18:38:17.790Z,6.30
2022-07-29T18:40:46.350Z,6.40
2022-07-29T18:43:14.474Z,6.60
2022-07-29T18:45:42.723Z,6.70
2022-07-29T18:48:15.386Z,6.60
2022-07-29T18:50:43.786Z,6.60
2022-07-29T18:53:11.900Z,6.90
2022-07-29T18:55:40.188Z,6.90
2022-07-29T18:58:08.367Z,6.70
2022-07-29T19:00:36.521Z,6.70
2022-07-29T19:03:04.956Z,6.60
2022-07-29T19:05:33.584Z,6.30
2022-07-29T19:08:01.689Z,6.60
2022-07-29T19:10:30.754Z,6.30
2022-07-29T19:15:27.105Z,6.10
2022-07-29T19:18:00.554Z,6.00
2022-07-29T19:20:29.546Z,6.00
2022-07-29T19:22:57.648Z,6.40
2022-07-29T19:25:25.954Z,6.20
2022-07-29T19:27:54.326Z,6.20
2022-07-29T19:30:22.445Z,6.40
2022-07-29T19:32:50.629Z,6.30
2022-07-29T19:35:25.516Z,6.00
2022-07-29T19:37:55.580Z,6.00
2022-07-29T19:40:23.900Z,5.60
2022-07-29T19:42:53.153Z,6.10
2022-07-29T19:45:22.859Z,6.50
2022-07-29T19:47:51.432Z,6.10
2022-07-29T19:50:19.626Z,6.70
2022-07-29T19:52:47.756Z,6.10
2022-07-29T19:55:16.166Z,6.10
2022-07-29T19:57:47.016Z,6.30
2022-07-29T20:00:17.112Z,5.60
2022-07-29T20:02:49.501Z,5.90
2022-07-29T20:05:18.144Z,6.20
2022-07-29T20:07:47.858Z,5.90
2022-07-29T20:10:16.846Z,5.90
2022-07-29T20:15:16.501Z,5.40
2022-07-29T20:17:46.434Z,5.70
2022-07-29T20:20:14.493Z,5.50
2022-07-29T20:22:43.083Z,5.80
2022-07-29T20:25:12.005Z,6.00
2022-07-29T20:32:40.703Z,6.60
2022-07-29T20:35:12.038Z,5.40
2022-07-29T20:37:55.863Z,6.40
2022-07-29T20:40:29.100Z,5.80
2022-07-29T20:42:57.309Z,6.10
2022-07-29T20:45:25.713Z,6.40
2022-07-29T20:47:54.173Z,6.10
2022-07-29T20:50:23.826Z,6.00
2022-07-29T20:52:52.890Z,6.00
2022-07-29T20:55:21.569Z,5.70
2022-07-29T20:57:49.603Z,5.90
2022-07-29T21:00:17.676Z,5.50
2022-07-29T21:02:48.788Z,6.10
2022-07-29T21:05:17.133Z,6.60
2022-07-29T21:07:45.306Z,5.90
2022-07-29T21:10:14.428Z,6.00
2022-07-29T21:12:42.697Z,5.80
2022-07-29T21:15:13.594Z,6.10
2022-07-29T21:17:48.753Z,5.90
2022-07-29T21:20:18.496Z,5.70
2022-07-29T21:22:46.640Z,5.70
2022-07-29T21:25:14.789Z,5.80
2022-07-29T21:28:01.321Z,5.40
2022-07-29T21:30:29.303Z,6.00
2022-07-29T21:32:57.460Z,6.00
2022-07-29T21:36:01.569Z,6.10
2022-07-29T21:38:16.462Z,6.00
2022-07-29T21:40:46.578Z,5.50
2022-07-29T21:43:15.658Z,5.90
2022-07-29T21:48:14.231Z,5.30
2022-07-29T21:50:42.345Z,5.70
2022-07-29T21:53:11.111Z,5.60
2022-07-29T21:55:42.245Z,5.60
2022-07-29T21:58:11.857Z,5.40
2022-07-29T22:00:41.438Z,6.30
2022-07-29T22:03:10.032Z,5.70
2022-07-29T22:05:38.079Z,6.10
2022-07-29T22:08:07.380Z,5.50
2022-07-29T22:10:35.805Z,5.60
2022-07-29T22:13:04.142Z,6.00
2022-07-29T22:15:32.577Z,5.70
2022-07-29T22:18:00.601Z,5.70
2022-07-29T22:20:28.704Z,5.50
2022-07-29T22:22:56.729Z,5.70
2022-07-29T22:25:24.955Z,5.30
2022-07-29T22:27:52.869Z,7.10
2022-07-29T22:30:20.855Z,6.50
2022-07-29T22:32:49.766Z,6.00
2022-07-29T22:35:18.789Z,6.10
2022-07-29T22:37:46.838Z,6.10
2022-07-29T22:40:15.138Z,5.50
2022-07-29T22:42:43.415Z,6.20
2022-07-29T22:45:11.698Z,6.40
2022-07-29T22:47:47.931Z,5.90
2022-07-29T22:50:17.667Z,6.70
2022-07-29T22:52:47.024Z,6.00
2022-07-29T22:55:17.338Z,6.10
2022-07-29T22:57:45.454Z,5.90
2022-07-29T23:00:14.307Z,6.10
2022-07-29T23:02:42.308Z,5.90
2022-07-29T23:05:10.815Z,6.40
2022-07-29T23:07:38.882Z,6.20
2022-07-29T23:10:07.877Z,5.80
2022-07-29T23:12:35.987Z,6.00
2022-07-29T23:15:05.851Z,6.20
2022-07-29T23:17:36.324Z,6.10
2022-07-29T23:20:07.943Z,6.00
2022-07-29T23:22:36.324Z,5.50
2022-07-29T23:25:06.355Z,6.20
2022-07-29T23:27:34.443Z,6.50
2022-07-29T23:30:03.711Z,5.70
2022-07-29T23:32:32.021Z,6.60
2022-07-29T23:35:00.583Z,6.60
2022-07-29T23:37:28.582Z,6.00
2022-07-29T23:39:56.934Z,6.40
2022-07-29T23:42:24.941Z,6.00
2022-07-29T23:44:53.071Z,5.90
2022-07-29T23:47:21.246Z,5.50
2022-07-29T23:49:50.301Z,6.30
2022-07-29T23:52:19.676Z,6.10
2022-07-29T23:54:47.846Z,5.80
2022-07-29T23:57:16.213Z,5.60
2022-07-29T23:59:44.238Z,5.60
